Time;durP1;ratioP1;P1;durP2;ratioP2;P2;SDS_P1;SDS_P2;PMS_P1;PMS_P2;Temp;Humidity;BMP_temperature;BMP_pressure;BME280_temperature;BME280_humidity;BME280_pressure;Samples;Min_cycle;Max_cycle;Signal;HPM_P1;HPM_P2
2022/03/01 00:00:01;;;;;;;108.30;43.90;;;;;;;-5.26;70.33;102692.91;88464;1271;82077;-80
2022/03/01 00:02:13;;;;;;;105.10;43.20;;;;;;;-5.23;70.50;102689.86;88442;1271;99269;-80
2022/03/01 00:04:25;;;;;;;104.00;44.20;;;;;;;-5.17;70.57;102690.09;88442;1271;87254;-69
2022/03/01 00:06:34;;;;;;;101.90;43.20;;;;;;;-5.13;70.57;102685.58;88449;1271;92869;-67
2022/03/01 00:08:48;;;;;;;107.70;45.10;;;;;;;-5.05;70.79;102686.83;88452;1271;80225;-66
2022/03/01 00:11:01;;;;;;;103.80;41.60;;;;;;;-4.99;70.80;102679.30;88474;1271;79936;-65
2022/03/01 00:13:11;;;;;;;90.60;37.00;;;;;;;-4.92;70.95;102669.30;88462;1269;96843;-66
2022/03/01 00:15:24;;;;;;;106.20;44.10;;;;;;;-4.88;70.94;102665.88;88466;1270;87781;-64
2022/03/01 00:17:36;;;;;;;98.90;42.10;;;;;;;-4.90;70.86;102663.63;88448;1270;95196;-65
2022/03/01 00:19:46;;;;;;;107.10;43.80;;;;;;;-4.86;70.68;102666.35;88428;1271;78920;-65
2022/03/01 00:21:56;;;;;;;115.70;44.80;;;;;;;-4.82;70.88;102668.38;88439;1271;84228;-65
2022/03/01 00:24:09;;;;;;;106.30;43.80;;;;;;;-4.85;70.86;102664.05;88456;1271;98717;-66
2022/03/01 00:26:18;;;;;;;108.90;44.30;;;;;;;-4.89;70.70;102664.13;88498;1271;88129;-66
2022/03/01 00:28:31;;;;;;;97.20;40.40;;;;;;;-4.94;70.99;102666.19;88454;1269;95765;-65
2022/03/01 00:30:40;;;;;;;100.30;43.70;;;;;;;-4.96;70.73;102667.47;88457;1270;80737;-65
2022/03/01 00:32:52;;;;;;;107.70;44.60;;;;;;;-4.98;70.63;102659.95;88449;1271;79982;-66
2022/03/01 00:35:01;;;;;;;106.30;44.80;;;;;;;-5.03;71.00;102662.72;88450;1271;99322;-66
2022/03/01 00:37:11;;;;;;;104.20;43.50;;;;;;;-5.08;70.92;102663.88;88464;1271;88210;-66
2022/03/01 00:39:21;;;;;;;100.60;43.30;;;;;;;-5.14;70.93;102662.08;88462;1271;95469;-69
2022/03/01 00:41:34;;;;;;;107.30;43.10;;;;;;;-5.20;71.01;102661.88;88451;1271;79716;-80
2022/03/01 00:43:44;;;;;;;101.80;42.90;;;;;;;-5.23;70.97;102661.95;88482;1271;82894;-80
2022/03/01 00:45:55;;;;;;;106.10;43.90;;;;;;;-5.28;70.94;102656.06;88492;1271;97287;-66
2022/03/01 00:48:05;;;;;;;103.40;44.30;;;;;;;-5.28;71.23;102657.65;88450;1271;89431;-67
2022/03/01 00:50:18;;;;;;;102.10;42.20;;;;;;;-5.26;71.21;102660.25;88470;1269;93550;-80
2022/03/01 00:52:28;;;;;;;94.70;40.80;;;;;;;-5.24;71.40;102661.98;88488;1271;81479;-81
2022/03/01 00:54:41;;;;;;;98.50;43.00;;;;;;;-5.20;71.57;102661.88;88500;1271;80200;-80
2022/03/01 00:56:50;;;;;;;108.40;42.00;;;;;;;-5.16;71.62;102661.78;88446;1270;98587;-81
2022/03/01 00:59:02;;;;;;;104.90;44.00;;;;;;;-5.16;71.66;102660.90;88649;1270;89281;-82
2022/03/01 01:01:13;;;;;;;100.10;40.60;;;;;;;-5.20;71.40;102658.88;88466;1269;95503;-65
2022/03/01 01:03:23;;;;;;;95.00;41.40;;;;;;;-5.22;71.57;102660.52;88460;1271;80486;-66
2022/03/01 01:05:32;;;;;;;95.20;40.00;;;;;;;-5.24;71.63;102658.98;88484;1271;79960;-82
2022/03/01 01:07:43;;;;;;;98.70;42.60;;;;;;;-5.30;71.50;102656.30;88483;1269;99731;-80
2022/03/01 01:09:52;;;;;;;98.00;40.30;;;;;;;-5.36;71.69;102653.42;88623;1269;89609;-82
2022/03/01 01:12:03;;;;;;;98.30;41.10;;;;;;;-5.41;71.74;102656.36;88612;1271;94037;-83
2022/03/01 01:14:13;;;;;;;93.70;41.60;;;;;;;-5.48;71.72;102656.16;88543;1271;76826;-83
2022/03/01 01:16:26;;;;;;;85.80;39.60;;;;;;;-5.58;71.66;102660.94;88533;1271;82592;-82
2022/03/01 01:18:38;;;;;;;93.80;40.10;;;;;;;-5.64;71.51;102660.54;88533;1270;99251;-82
2022/03/01 01:20:48;;;;;;;88.70;38.30;;;;;;;-5.71;71.71;102657.52;88531;1271;86681;-83
2022/03/01 01:23:01;;;;;;;85.60;38.00;;;;;;;-5.79;71.73;102658.91;88467;1270;95434;-81
2022/03/01 01:25:14;;;;;;;90.90;40.00;;;;;;;-5.85;71.61;102655.73;88549;1271;81636;-81
2022/03/01 01:27:25;;;;;;;100.30;41.30;;;;;;;-5.91;71.76;102654.09;88558;1271;82322;-81
2022/03/01 01:29:34;;;;;;;112.20;44.40;;;;;;;-5.92;71.70;102655.88;88477;1271;99998;-66
2022/03/01 01:31:44;;;;;;;120.40;46.10;;;;;;;-5.93;71.84;102655.73;88495;1271;89735;-66
2022/03/01 01:33:54;;;;;;;128.10;46.40;;;;;;;-5.94;71.95;102655.73;88369;1271;94279;-66
2022/03/01 01:36:05;;;;;;;144.60;49.80;;;;;;;-5.93;72.18;102656.25;88421;1271;79580;-66
2022/03/01 01:38:15;;;;;;;137.20;48.90;;;;;;;-5.92;72.26;102657.81;88455;1271;81402;-66
2022/03/01 01:40:28;;;;;;;133.90;48.60;;;;;;;-5.97;72.18;102654.56;88481;1269;98534;-80
2022/03/01 01:42:38;;;;;;;129.60;47.10;;;;;;;-6.03;72.14;102652.95;88331;1271;91022;-79
2022/03/01 01:44:49;;;;;;;118.00;44.90;;;;;;;-6.04;72.26;102653.45;88479;1271;94215;-66
2022/03/01 01:47:03;;;;;;;108.30;42.30;;;;;;;-6.07;72.24;102657.05;88444;1271;78203;-66
2022/03/01 01:49:17;;;;;;;109.30;41.70;;;;;;;-6.11;72.26;102653.95;88294;1273;80808;-66
2022/03/01 01:51:29;;;;;;;98.40;41.00;;;;;;;-6.16;72.31;102655.27;88341;1274;95873;-81
2022/03/01 01:53:43;;;;;;;97.90;40.20;;;;;;;-6.22;72.36;102659.25;88520;1271;88251;-80
2022/03/01 01:55:54;;;;;;;103.50;41.90;;;;;;;-6.28;72.30;102657.08;88493;1271;95622;-81
2022/03/01 01:58:05;;;;;;;100.30;40.00;;;;;;;-6.34;72.35;102659.64;88436;1270;80876;-80
2022/03/01 02:00:18;;;;;;;96.30;39.10;;;;;;;-6.38;72.33;102661.28;88487;1271;83061;-68
2022/03/01 02:02:30;;;;;;;94.90;40.00;;;;;;;-6.47;72.37;102659.18;88447;1271;99183;-65
2022/03/01 02:04:40;;;;;;;93.30;40.30;;;;;;;-6.53;72.62;102657.19;88310;1274;89826;-65
2022/03/01 02:07:00;;;;;;;104.00;42.50;;;;;;;-6.57;72.59;102655.50;88422;1271;94397;-67
2022/03/01 02:09:11;;;;;;;99.90;40.90;;;;;;;-6.57;72.70;102654.61;88428;1271;82649;-65
2022/03/01 02:11:24;;;;;;;99.50;41.70;;;;;;;-6.56;72.89;102655.29;88383;1274;82408;-77
2022/03/01 02:13:33;;;;;;;;;;;;;;;-6.52;72.85;102657.85;88536;1271;99680;-79
2022/03/01 02:15:46;;;;;;;84.60;36.60;;;;;;;-6.50;72.99;102659.22;88485;1270;87138;-80
2022/03/01 02:17:58;;;;;;;;;;;;;;;-6.50;73.12;102653.63;88481;1271;94622;-79
2022/03/01 02:20:17;;;;;;;84.20;35.90;;;;;;;-6.58;73.06;102647.96;88284;1271;80805;-79
2022/03/01 02:22:34;;;;;;;90.70;38.90;;;;;;;-6.60;73.17;102644.84;88345;1274;81086;-78
2022/03/01 02:24:44;;;;;;;89.90;38.50;;;;;;;-6.64;73.18;102643.32;88493;1271;95627;-78
2022/03/01 02:26:56;;;;;;;88.00;37.80;;;;;;;-6.65;73.18;102640.89;88479;1271;88179;-79
2022/03/01 02:29:10;;;;;;;85.90;37.70;;;;;;;-6.67;73.16;102640.24;88464;1271;93618;-79
2022/03/01 02:31:24;;;;;;;89.30;38.70;;;;;;;-6.76;73.20;102634.95;88463;1271;78558;-80
2022/03/01 02:33:33;;;;;;;;;;;;;;;-6.79;73.12;102637.29;88521;1271;82382;-78
2022/03/01 02:35:46;;;;;;;109.50;42.70;;;;;;;-6.83;73.33;102635.23;88490;1271;98256;-78
2022/03/01 02:37:56;;;;;;;93.10;39.70;;;;;;;-6.85;73.15;102634.23;88498;1271;87335;-80
2022/03/01 02:40:09;;;;;;;105.60;41.80;;;;;;;-6.86;73.20;102631.80;88447;1271;95695;-80
2022/03/01 02:42:19;;;;;;;99.10;40.90;;;;;;;-6.88;73.16;102630.77;88373;1271;82611;-81
2022/03/01 02:44:28;;;;;;;115.20;44.70;;;;;;;-6.90;73.31;102628.35;88526;1271;81120;-64
2022/03/01 02:46:42;;;;;;;105.50;41.80;;;;;;;-6.92;73.49;102631.00;88417;1271;97470;-66
2022/03/01 02:48:53;;;;;;;84.10;35.50;;;;;;;-6.93;73.61;102630.86;88466;1271;89120;-65
2022/03/01 02:51:03;;;;;;;96.90;41.00;;;;;;;-6.95;73.60;102634.20;88473;1271;95595;-81
2022/03/01 02:53:15;;;;;;;99.30;41.80;;;;;;;-6.89;73.52;102634.65;88475;1271;81472;-81
2022/03/01 02:55:25;;;;;;;99.00;43.90;;;;;;;-6.81;73.79;102631.36;88464;1271;82998;-66
2022/03/01 02:57:35;;;;;;;96.40;42.10;;;;;;;-6.80;73.69;102626.97;88452;1271;99141;-65
2022/03/01 02:59:47;;;;;;;94.60;41.00;;;;;;;-6.76;73.78;102626.91;88299;1274;86840;-79
2022/03/01 03:01:59;;;;;;;86.60;39.80;;;;;;;-6.71;73.75;102625.06;87990;1271;626538;-79
2022/03/01 03:04:08;;;;;;;83.50;38.90;;;;;;;-6.70;73.71;102619.79;88441;1271;79027;-80
2022/03/01 03:06:18;;;;;;;89.50;39.10;;;;;;;-6.71;73.65;102616.48;88479;1271;82901;-65
2022/03/01 03:08:27;;;;;;;87.10;40.70;;;;;;;-6.69;73.70;102618.89;88428;1270;96728;-66
2022/03/01 03:10:41;;;;;;;85.30;39.30;;;;;;;-6.69;73.72;102610.48;88444;1271;89583;-65
2022/03/01 03:12:51;;;;;;;83.70;37.90;;;;;;;-6.64;73.62;102608.64;88449;1271;94473;-66
2022/03/01 03:15:02;;;;;;;82.10;37.60;;;;;;;-6.63;73.69;102611.96;88446;1271;79298;-66
2022/03/01 03:17:12;;;;;;;77.20;35.00;;;;;;;-6.58;73.62;102605.56;88444;1271;83836;-65
2022/03/01 03:19:25;;;;;;;77.30;36.10;;;;;;;-6.57;73.60;102603.62;88449;1271;99078;-66
2022/03/01 03:21:38;;;;;;;86.50;37.40;;;;;;;-6.51;73.60;102605.63;88454;1271;89073;-77
2022/03/01 03:23:51;;;;;;;81.60;36.80;;;;;;;-6.56;73.44;102604.83;88460;1271;95802;-77
2022/03/01 03:26:02;;;;;;;78.50;36.10;;;;;;;-6.62;73.43;102600.90;88466;1271;81459;-67
2022/03/01 03:28:12;;;;;;;78.50;35.70;;;;;;;-6.63;73.43;102597.23;88474;1271;83314;-65
2022/03/01 03:30:22;;;;;;;82.70;35.70;;;;;;;-6.58;73.42;102601.70;88477;1271;99111;-77
2022/03/01 03:32:33;;;;;;;79.70;35.70;;;;;;;-6.53;73.22;102601.27;88450;1271;90559;-77
2022/03/01 03:34:46;;;;;;;78.30;34.80;;;;;;;-6.52;73.30;102601.08;88483;1271;94388;-64
2022/03/01 03:36:57;;;;;;;80.30;34.90;;;;;;;-6.55;73.34;102599.22;88427;1271;80165;-64
2022/03/01 03:39:08;;;;;;;73.30;33.30;;;;;;;-6.53;73.48;102599.87;88430;1271;80754;-66
2022/03/01 03:41:18;;;;;;;80.70;34.60;;;;;;;-6.49;73.48;102593.14;88391;1271;97016;-78
2022/03/01 03:43:28;;;;;;;82.00;35.60;;;;;;;-6.52;73.38;102593.02;88471;1271;89882;-79
2022/03/01 03:45:40;;;;;;;84.60;38.10;;;;;;;-6.55;73.28;102589.40;88442;1271;95256;-80
2022/03/01 03:47:53;;;;;;;99.00;43.00;;;;;;;-6.54;73.41;102587.80;88496;1271;79586;-79
2022/03/01 03:50:02;;;;;;;97.70;41.00;;;;;;;-6.53;73.45;102584.81;88527;1271;81444;-67
2022/03/01 03:52:12;;;;;;;84.70;39.80;;;;;;;-6.50;73.42;102586.15;88342;1271;97800;-68
2022/03/01 03:54:25;;;;;;;94.50;41.60;;;;;;;-6.48;73.32;102579.80;88465;1271;89093;-74
2022/03/01 03:56:37;;;;;;;82.70;38.00;;;;;;;-6.60;73.23;102580.02;88530;1271;95588;-80
2022/03/01 03:58:47;;;;;;;75.10;35.10;;;;;;;-6.57;73.23;102579.61;88476;1271;79978;-80
2022/03/01 04:00:57;;;;;;;81.40;34.60;;;;;;;-6.55;73.26;102579.41;88500;1271;80476;-80
2022/03/01 04:03:07;;;;;;;81.30;35.60;;;;;;;-6.65;73.03;102580.27;88329;1274;96970;-81
2022/03/01 04:05:17;;;;;;;83.30;34.60;;;;;;;-6.66;73.21;102583.27;88501;1271;89101;-81
2022/03/01 04:07:26;;;;;;;79.70;34.80;;;;;;;-6.74;73.11;102583.41;88470;1271;95084;-81
2022/03/01 04:09:39;;;;;;;73.80;33.20;;;;;;;-6.78;73.08;102586.46;88472;1270;79511;-67
2022/03/01 04:11:49;;;;;;;69.60;32.90;;;;;;;-6.73;73.14;102587.60;88481;1271;79035;-67
2022/03/01 04:13:59;;;;;;;70.80;33.50;;;;;;;-6.75;73.12;102585.54;88448;1271;96468;-68
2022/03/01 04:16:09;;;;;;;71.90;32.50;;;;;;;-6.77;73.18;102583.83;88451;1271;88475;-68
2022/03/01 04:18:18;;;;;;;74.70;32.20;;;;;;;-6.84;73.21;102582.70;88423;1271;93084;-68
2022/03/01 04:20:28;;;;;;;69.10;31.90;;;;;;;-6.85;73.28;102579.59;88425;1271;81938;-68
2022/03/01 04:22:42;;;;;;;69.00;29.90;;;;;;;-6.85;73.46;102578.88;88447;1271;79691;-68
2022/03/01 04:24:51;;;;;;;63.70;29.60;;;;;;;-6.83;73.39;102573.77;88353;1271;98997;-80
2022/03/01 04:27:02;;;;;;;64.80;31.40;;;;;;;-6.84;73.33;102572.91;88520;1270;88515;-79
2022/03/01 04:29:13;;;;;;;67.20;31.00;;;;;;;-6.86;73.13;102574.70;88492;1271;95613;-78
2022/03/01 04:31:23;;;;;;;69.00;31.60;;;;;;;-6.85;73.29;102575.73;88469;1271;79040;-70
2022/03/01 04:33:33;;;;;;;66.10;31.40;;;;;;;-6.86;73.17;102577.67;88423;1271;82155;-68
2022/03/01 04:35:44;;;;;;;64.50;31.00;;;;;;;-6.88;73.05;102570.35;88476;1270;97811;-80
2022/03/01 04:37:53;;;;;;;68.40;31.30;;;;;;;-6.91;73.16;102572.68;88483;1271;87730;-77
2022/03/01 04:40:08;;;;;;;68.80;31.40;;;;;;;-6.94;73.07;102571.86;88432;1271;96042;-67
2022/03/01 04:42:17;;;;;;;68.90;31.90;;;;;;;-6.98;73.33;102575.25;88479;1271;78633;-68
2022/03/01 04:44:29;;;;;;;78.40;33.40;;;;;;;-6.96;73.11;102576.27;88297;1274;84473;-66
2022/03/01 04:46:39;;;;;;;66.20;31.20;;;;;;;-6.96;73.14;102571.52;88335;1271;96562;-66
2022/03/01 04:48:51;;;;;;;71.30;32.20;;;;;;;-6.90;73.22;102569.52;88443;1271;88227;-69
2022/03/01 04:51:21;;;;;;;71.90;31.90;;;;;;;-6.94;73.14;102567.66;88456;1271;94689;-78
2022/03/01 04:53:43;;;;;;;64.90;30.40;;;;;;;-6.95;73.27;102565.23;88312;1274;79468;-67
2022/03/01 04:55:55;;;;;;;67.60;30.10;;;;;;;-6.99;73.33;102566.68;88443;1271;80860;-67
2022/03/01 04:58:04;;;;;;;65.40;31.70;;;;;;;-6.98;73.40;102559.48;88435;1271;99468;-70
2022/03/01 05:00:16;;;;;;;64.40;29.50;;;;;;;-7.00;73.47;102561.10;88308;1271;87622;-68
2022/03/01 05:02:29;;;;;;;75.80;32.30;;;;;;;-6.95;73.41;102560.31;88461;1270;92880;-68
2022/03/01 05:04:38;;;;;;;68.70;30.00;;;;;;;-6.97;73.32;102560.19;88473;1271;78743;-70
2022/03/01 05:06:47;;;;;;;65.60;31.10;;;;;;;-6.99;73.29;102558.81;88466;1270;80888;-66
2022/03/01 05:09:01;;;;;;;67.20;31.40;;;;;;;-7.02;73.30;102556.40;88463;1268;97350;-68
2022/03/01 05:11:11;;;;;;;73.80;32.80;;;;;;;-7.05;73.34;102559.80;88463;1271;88972;-68
2022/03/01 05:13:20;;;;;;;68.10;32.20;;;;;;;-7.08;73.34;102560.55;88433;1271;95517;-68
2022/03/01 05:15:32;;;;;;;72.00;32.30;;;;;;;-7.10;73.40;102559.86;88465;1271;79215;-76
2022/03/01 05:17:43;;;;;;;70.80;32.70;;;;;;;-7.14;73.40;102562.73;88465;1271;80076;-77
2022/03/01 05:19:54;;;;;;;66.50;30.80;;;;;;;-7.11;73.54;102562.86;88480;1271;97381;-65
2022/03/01 05:22:10;;;;;;;74.10;33.00;;;;;;;-7.08;73.61;102564.21;88455;1271;87846;-65
2022/03/01 05:24:27;;;;;;;72.40;32.90;;;;;;;-7.12;73.60;102560.25;88334;1274;93253;-65
2022/03/01 05:26:39;;;;;;;77.40;33.30;;;;;;;-7.14;73.56;102558.54;88304;1272;79246;-65
2022/03/01 05:28:53;;;;;;;66.70;30.30;;;;;;;-7.12;73.61;102562.34;88447;1270;81673;-77
2022/03/01 05:31:03;;;;;;;58.90;26.60;;;;;;;-7.12;73.68;102559.89;88445;1270;97773;-77
2022/03/01 05:33:15;;;;;;;75.50;31.50;;;;;;;-7.09;73.68;102557.91;88474;1271;87836;-78
2022/03/01 05:35:28;;;;;;;66.80;30.60;;;;;;;-7.04;73.78;102557.33;88310;1273;94658;-66
2022/03/01 05:37:39;;;;;;;66.90;31.00;;;;;;;-7.03;73.82;102560.61;88441;1271;78999;-66
2022/03/01 05:39:49;;;;;;;68.50;31.70;;;;;;;-6.98;73.81;102555.80;88444;1271;83282;-78
2022/03/01 05:41:58;;;;;;;63.50;29.20;;;;;;;-6.93;73.67;102554.34;88481;1271;98933;-78
2022/03/01 05:44:09;;;;;;;71.00;32.00;;;;;;;-6.86;73.84;102552.46;88481;1271;87684;-79
2022/03/01 05:46:22;;;;;;;65.80;31.80;;;;;;;-6.78;73.78;102557.57;88518;1271;93949;-66
2022/03/01 05:48:32;;;;;;;64.90;32.30;;;;;;;-6.75;73.77;102557.52;88286;1271;79289;-65
2022/03/01 05:50:41;;;;;;;64.00;30.70;;;;;;;-6.68;73.78;102561.42;88369;1272;83198;-80
2022/03/01 05:52:54;;;;;;;69.70;31.60;;;;;;;-6.60;73.94;102561.96;88351;1273;99076;-68
2022/03/01 05:55:08;;;;;;;;;;;;;;;-6.47;74.18;102562.09;88314;1273;87697;-69
2022/03/01 05:57:19;;;;;;;71.80;31.70;;;;;;;-6.37;73.92;102564.17;88286;1273;94789;-68
2022/03/01 05:59:29;;;;;;;67.30;31.80;;;;;;;-6.32;73.98;102561.98;88319;1273;82444;-78
2022/03/01 06:01:46;;;;;;;60.40;29.90;;;;;;;-6.25;73.93;102565.68;88404;1273;81973;-80
2022/03/01 06:03:58;;;;;;;70.80;31.20;;;;;;;-6.14;74.00;102564.24;88312;1273;100376;-80
2022/03/01 06:06:10;;;;;;;70.20;32.20;;;;;;;-5.99;74.06;102561.66;88375;1273;88934;-81
2022/03/01 06:08:23;;;;;;;67.30;33.10;;;;;;;-5.47;74.52;102549.41;88315;1273;96107;-77
2022/03/01 06:10:33;;;;;;;61.80;31.70;;;;;;;-5.02;74.04;102549.38;88257;1272;79728;-78
2022/03/01 06:12:42;;;;;;;67.90;32.40;;;;;;;-4.77;73.57;102546.29;88351;1273;82502;-81
2022/03/01 06:14:56;;;;;;;65.70;31.60;;;;;;;-4.67;73.16;102544.27;88302;1273;99599;-80
2022/03/01 06:17:06;;;;;;;67.90;32.90;;;;;;;-4.76;73.52;102548.20;88332;1272;88192;-80
2022/03/01 06:19:16;;;;;;;63.40;32.00;;;;;;;-4.83;73.54;102548.35;88335;1273;94871;-80
2022/03/01 06:21:25;;;;;;;71.70;34.30;;;;;;;-4.83;73.37;102545.39;88306;1273;78083;-71
2022/03/01 06:23:39;;;;;;;70.80;35.10;;;;;;;-4.64;73.42;102545.06;88317;1273;81064;-70
2022/03/01 06:25:49;;;;;;;64.40;33.40;;;;;;;-3.60;73.83;102540.29;88334;1273;99901;-82
2022/03/01 06:28:02;;;;;;;65.70;34.60;;;;;;;-2.47;73.34;102542.68;88368;1272;88769;-79
2022/03/01 06:30:14;;;;;;;67.70;34.00;;;;;;;-1.60;72.36;102538.72;88370;1273;95350;-68
2022/03/01 06:32:27;;;;;;;70.70;36.10;;;;;;;-0.69;71.88;102535.50;88311;1274;79071;-69
2022/03/01 06:34:37;;;;;;;68.10;34.80;;;;;;;-0.37;70.50;102533.95;88330;1273;84962;-77
2022/03/01 06:36:46;;;;;;;64.30;34.60;;;;;;;-0.49;70.29;102534.13;88380;1272;96657;-79
2022/03/01 06:38:56;;;;;;;61.80;34.80;;;;;;;-0.20;70.12;102528.21;88342;1273;89030;-82
2022/03/01 06:41:09;;;;;;;63.70;33.70;;;;;;;0.05;69.50;102532.73;88282;1273;95367;-67
2022/03/01 06:43:19;;;;;;;58.40;36.00;;;;;;;0.31;68.98;102529.77;88300;1273;77431;-70
2022/03/01 06:45:29;;;;;;;57.20;32.40;;;;;;;1.11;69.28;102532.20;88321;1273;82203;-78
2022/03/01 06:47:41;;;;;;;60.10;33.50;;;;;;;2.13;68.22;102522.54;88423;1271;97265;-78
2022/03/01 06:49:51;;;;;;;58.50;34.10;;;;;;;2.21;66.48;102521.22;88535;1271;88074;-79
2022/03/01 06:52:01;;;;;;;61.30;34.90;;;;;;;2.01;65.64;102527.98;88530;1271;95457;-80
2022/03/01 06:54:14;;;;;;;55.90;34.50;;;;;;;1.92;65.93;102527.11;88487;1271;80078;-79
2022/03/01 06:56:24;;;;;;;60.80;33.50;;;;;;;2.26;66.15;102523.98;88328;1274;81797;-78
2022/03/01 06:58:38;;;;;;;62.10;33.60;;;;;;;2.13;65.44;102522.73;88469;1271;97774;-78
2022/03/01 07:00:45;;;;;;;;;;;;;;;1.62;65.33;102525.85;88489;1271;89027;-71
2022/03/01 07:02:59;;;;;;;60.70;33.50;;;;;;;1.20;65.85;102526.95;88336;1271;94083;-71
2022/03/01 07:05:10;;;;;;;77.90;40.90;;;;;;;0.98;66.02;102527.55;88488;1271;78190;-70
2022/03/01 07:07:23;;;;;;;69.30;37.10;;;;;;;0.89;66.29;102531.20;88458;1270;82806;-70
2022/03/01 07:09:32;;;;;;;71.10;37.10;;;;;;;1.89;67.18;102527.75;88456;1271;99253;-79
2022/03/01 07:11:43;;;;;;;66.60;36.40;;;;;;;2.98;66.60;102521.81;88474;1271;87717;-77
2022/03/01 07:13:52;;;;;;;65.90;36.80;;;;;;;3.70;66.24;102519.09;88337;1274;95362;-82
2022/03/01 07:16:03;;;;;;;63.70;37.00;;;;;;;4.16;65.20;102520.84;88562;1270;76861;-84
2022/03/01 07:18:16;;;;;;;60.40;36.20;;;;;;;4.83;64.08;102514.86;88596;1271;80614;-81
2022/03/01 07:20:27;;;;;;;91.10;49.90;;;;;;;4.65;63.19;102517.88;88457;1271;98991;-66
2022/03/01 07:22:41;;;;;;;64.20;35.30;;;;;;;4.41;63.62;102511.93;88457;1271;89655;-68
2022/03/01 07:24:51;;;;;;;58.60;33.10;;;;;;;4.76;63.96;102509.77;88479;1271;94955;-80
2022/03/01 07:27:04;;;;;;;60.40;32.90;;;;;;;5.54;63.03;102508.94;88485;1271;78245;-81
2022/03/01 07:29:15;;;;;;;63.10;34.30;;;;;;;6.43;62.92;102501.90;88511;1270;81459;-83
2022/03/01 07:31:26;;;;;;;64.10;32.20;;;;;;;7.14;62.79;102501.74;88503;1271;98135;-76
2022/03/01 07:33:41;;;;;;;77.50;36.00;;;;;;;7.47;61.40;102494.75;88435;1271;88381;-78
2022/03/01 07:35:51;;;;;;;57.60;28.70;;;;;;;7.87;60.42;102493.73;88464;1271;92481;-78
2022/03/01 07:38:02;;;;;;;43.80;24.30;;;;;;;8.26;59.51;102493.11;88474;1271;78161;-68
2022/03/01 07:40:16;;;;;;;38.60;23.30;;;;;;;8.83;58.62;102494.57;88367;1274;80258;-79
2022/03/01 07:42:30;;;;;;;33.00;20.70;;;;;;;9.59;57.74;102496.48;88492;1269;99504;-79
2022/03/01 07:44:41;;;;;;;27.90;18.60;;;;;;;10.53;56.83;102494.06;88332;1274;88556;-75
2022/03/01 07:46:51;;;;;;;26.50;17.10;;;;;;;11.15;55.52;102489.99;88427;1271;94446;-74
2022/03/01 07:49:03;;;;;;;26.30;17.50;;;;;;;11.74;54.17;102487.28;88452;1271;78184;-74
2022/03/01 07:51:13;;;;;;;30.00;17.70;;;;;;;12.43;53.11;102487.77;88477;1271;81560;-75
2022/03/01 07:53:25;;;;;;;26.30;18.30;;;;;;;13.13;52.22;102490.82;88462;1271;98803;-76
2022/03/01 07:55:36;;;;;;;34.00;23.00;;;;;;;13.70;51.19;102484.75;88464;1271;88125;-66
2022/03/01 07:57:45;;;;;;;29.00;20.00;;;;;;;14.22;50.17;102480.11;88423;1271;94482;-67
2022/03/01 07:59:59;;;;;;;27.80;21.00;;;;;;;14.61;48.70;102480.80;88436;1271;79126;-73
2022/03/01 08:02:13;;;;;;;29.60;20.70;;;;;;;15.01;47.77;102481.05;88466;1271;82181;-76
2022/03/01 08:04:23;;;;;;;26.50;18.40;;;;;;;15.20;46.14;102483.46;88449;1271;98322;-70
2022/03/01 08:06:32;;;;;;;26.60;18.70;;;;;;;15.38;44.61;102486.88;88468;1270;89504;-66
2022/03/01 08:08:42;;;;;;;32.20;21.10;;;;;;;15.61;43.98;102484.30;88431;1271;94647;-66
2022/03/01 08:10:55;;;;;;;29.10;19.50;;;;;;;15.63;43.89;102482.90;88312;1274;79856;-77
2022/03/01 08:13:07;;;;;;;31.20;18.30;;;;;;;16.15;43.36;102478.88;88457;1271;82494;-77
2022/03/01 08:15:19;;;;;;;27.40;18.80;;;;;;;16.56;42.23;102477.05;88431;1271;99698;-79
2022/03/01 08:17:30;;;;;;;32.40;21.10;;;;;;;16.57;41.40;102475.61;88472;1270;89332;-79
2022/03/01 08:19:40;;;;;;;30.20;20.40;;;;;;;16.82;41.53;102478.82;88319;1274;94858;-68
2022/03/01 08:21:50;;;;;;;27.20;19.20;;;;;;;17.09;40.54;102476.36;88429;1271;78600;-66
2022/03/01 08:23:59;;;;;;;27.10;20.60;;;;;;;16.95;40.03;102475.95;88434;1271;83757;-66
2022/03/01 08:26:09;;;;;;;26.50;20.60;;;;;;;16.75;39.40;102472.21;88453;1271;98865;-80
2022/03/01 08:28:23;;;;;;;27.70;20.30;;;;;;;16.77;39.46;102471.04;88504;1271;87381;-79
2022/03/01 08:30:35;;;;;;;24.50;18.30;;;;;;;17.03;39.08;102475.59;88443;1271;94783;-84
2022/03/01 08:32:46;;;;;;;23.50;17.90;;;;;;;17.17;38.08;102479.04;88467;1271;78288;-75
2022/03/01 08:34:56;;;;;;;27.00;19.70;;;;;;;17.23;37.17;102476.70;88457;1271;81810;-66
2022/03/01 08:37:06;;;;;;;34.30;26.20;;;;;;;16.97;36.16;102479.27;88313;1274;98159;-66
2022/03/01 08:39:19;;;;;;;24.20;18.40;;;;;;;16.95;35.42;102479.23;88302;1272;89423;-66
2022/03/01 08:41:28;;;;;;;23.20;16.60;;;;;;;16.80;35.93;102481.56;88439;1271;93008;-64
2022/03/01 08:43:38;;;;;;;26.60;21.10;;;;;;;16.91;35.84;102481.06;88419;1271;78016;-65
2022/03/01 08:45:48;;;;;;;23.80;16.10;;;;;;;17.15;35.39;102485.81;88486;1271;80042;-84
2022/03/01 08:47:57;;;;;;;23.10;16.50;;;;;;;17.06;34.66;102482.36;88476;1271;99302;-79
2022/03/01 08:50:09;;;;;;;22.20;17.60;;;;;;;16.90;34.80;102478.02;88481;1271;88889;-63
2022/03/01 08:52:18;;;;;;;21.20;17.10;;;;;;;16.84;35.19;102476.08;88432;1271;95007;-64
2022/03/01 08:54:34;;;;;;;34.20;24.70;;;;;;;17.12;35.35;102470.84;88430;1270;77886;-79
2022/03/01 08:56:44;;;;;;;22.30;16.60;;;;;;;17.24;34.50;102472.06;88500;1271;80226;-81
2022/03/01 08:58:55;;;;;;;22.40;14.50;;;;;;;17.42;33.74;102468.34;88435;1271;98919;-79
2022/03/01 09:01:05;;;;;;;17.70;14.00;;;;;;;17.03;32.55;102466.09;88487;1270;88392;-65
2022/03/01 09:03:19;;;;;;;19.10;14.50;;;;;;;16.96;33.21;102462.55;88405;1271;94173;-66
2022/03/01 09:05:33;;;;;;;21.00;13.60;;;;;;;17.19;32.83;102462.81;88431;1271;79162;-65
2022/03/01 09:07:43;;;;;;;17.00;13.80;;;;;;;16.92;32.21;102467.45;88450;1271;80777;-66
2022/03/01 09:09:53;;;;;;;17.40;15.20;;;;;;;16.87;32.46;102465.15;88476;1271;99491;-81
2022/03/01 09:12:03;;;;;;;17.90;14.40;;;;;;;16.86;32.51;102462.60;88469;1271;88560;-79
2022/03/01 09:14:13;;;;;;;16.10;12.90;;;;;;;16.82;32.99;102464.16;88296;1271;93275;-81
2022/03/01 09:16:23;;;;;;;22.80;13.80;;;;;;;16.82;31.69;102458.80;88396;1271;80511;-66
2022/03/01 09:18:34;;;;;;;16.30;11.20;;;;;;;16.65;32.22;102455.55;88445;1271;81698;-65
2022/03/01 09:20:45;;;;;;;15.90;11.20;;;;;;;16.41;32.58;102454.05;88432;1271;98036;-80
2022/03/01 09:22:58;;;;;;;17.20;11.50;;;;;;;16.57;31.88;102448.13;88502;1271;88016;-79
2022/03/01 09:25:09;;;;;;;14.80;11.50;;;;;;;16.72;31.99;102450.52;88467;1271;94053;-65
2022/03/01 09:27:23;;;;;;;15.40;11.70;;;;;;;16.81;31.66;102451.44;88429;1270;80487;-65
2022/03/01 09:29:37;;;;;;;13.20;10.10;;;;;;;16.78;31.56;102447.86;88448;1271;83628;-76
2022/03/01 09:31:53;;;;;;;23.20;12.50;;;;;;;16.82;31.83;102448.24;88445;1271;98818;-79
2022/03/01 09:34:04;;;;;;;24.10;11.70;;;;;;;16.74;30.91;102442.71;88359;1271;87714;-80
2022/03/01 09:36:15;;;;;;;19.70;9.60;;;;;;;16.72;31.07;102443.13;88416;1271;94553;-68
2022/03/01 09:38:27;;;;;;;12.90;9.00;;;;;;;16.60;31.09;102439.30;88436;1271;77603;-64
2022/03/01 09:40:37;;;;;;;10.80;8.00;;;;;;;16.23;31.24;102440.62;88450;1271;84673;-66
2022/03/01 09:42:51;;;;;;;12.90;9.50;;;;;;;16.09;31.36;102438.82;88414;1271;98296;-70
2022/03/01 09:45:01;;;;;;;12.70;9.20;;;;;;;16.15;30.83;102442.34;88432;1271;88139;-65
2022/03/01 09:47:14;;;;;;;14.70;9.70;;;;;;;15.73;30.21;102440.37;88422;1271;94523;-65
2022/03/01 09:49:26;;;;;;;17.90;9.40;;;;;;;15.72;30.56;102436.58;88446;1271;78367;-72
2022/03/01 09:51:40;;;;;;;8.90;7.20;;;;;;;15.91;30.40;102429.10;88424;1271;81645;-71
2022/03/01 09:53:50;;;;;;;8.50;6.80;;;;;;;15.78;30.20;102422.73;88423;1271;97279;-73
2022/03/01 09:56:04;;;;;;;7.80;5.70;;;;;;;15.36;30.51;102417.94;88476;1271;87727;-67
2022/03/01 09:58:14;;;;;;;10.60;7.00;;;;;;;15.15;30.66;102415.96;88437;1271;95666;-67